Time;durP1;ratioP1;P1;durP2;ratioP2;P2;SDS_P1;SDS_P2;PMS_P1;PMS_P2;Temp;Humidity;BMP_temperature;BMP_pressure;BME280_temperature;BME280_humidity;BME280_pressure;Samples;Min_cycle;Max_cycle;Signal;HPM_P1;HPM_P2
2022/01/15 00:01:40;;;;;;;9.07;4.18;;;;;;;22.29;20.25;99008.63;4970314;28;20069;-81
2022/01/15 00:04:06;;;;;;;13.57;3.65;;;;;;;21.90;20.74;99011.38;4973835;28;20035;-81
2022/01/15 00:06:33;;;;;;;12.25;3.90;;;;;;;21.47;21.18;99012.47;4972146;28;20502;-81
2022/01/15 00:08:59;;;;;;;8.02;3.83;;;;;;;21.31;21.21;99007.19;4973441;28;20026;-81
2022/01/15 00:11:25;;;;;;;10.20;4.10;;;;;;;21.17;21.38;98993.97;4971473;28;20073;-82
2022/01/15 00:14:12;;;;;;;13.10;4.72;;;;;;;20.24;22.41;99001.31;4972765;28;20443;-82
2022/01/15 00:16:49;;;;;;;8.30;3.60;;;;;;;20.22;22.50;99001.72;4984164;28;20042;-81
2022/01/15 00:19:18;;;;;;;15.20;4.80;;;;;;;19.89;22.63;98997.00;4983341;28;20046;-81
2022/01/15 00:21:44;;;;;;;13.63;4.30;;;;;;;19.41;23.41;99003.69;4974777;28;20487;-81
2022/01/15 00:24:10;;;;;;;9.63;3.90;;;;;;;19.32;23.43;98995.56;4969391;28;20556;-81
2022/01/15 00:26:36;;;;;;;16.45;5.82;;;;;;;18.74;24.20;99005.53;4974377;28;20031;-81
2022/01/15 00:29:02;;;;;;;10.45;4.63;;;;;;;19.38;23.57;98996.06;4970510;28;20054;-81
2022/01/15 00:31:28;;;;;;;9.90;4.97;;;;;;;19.02;23.81;98988.44;4973716;28;20118;-81
2022/01/15 00:33:54;;;;;;;13.57;4.93;;;;;;;18.56;24.38;98980.25;4972434;28;20035;-81
2022/01/15 00:36:20;;;;;;;10.63;4.47;;;;;;;18.93;23.81;98999.84;4974092;28;20060;-81
2022/01/15 00:38:47;;;;;;;12.02;4.72;;;;;;;19.22;23.61;98995.44;4971727;28;20506;-81
2022/01/15 00:41:16;;;;;;;11.35;4.68;;;;;;;18.45;24.76;98989.59;4972168;28;20483;-81
2022/01/15 00:43:42;;;;;;;13.88;4.88;;;;;;;19.53;23.06;98994.25;4973413;28;20391;-81
2022/01/15 00:46:08;;;;;;;9.73;4.10;;;;;;;19.83;22.66;98993.00;4973460;28;20499;-81
2022/01/15 00:48:34;;;;;;;14.55;4.40;;;;;;;19.51;22.97;98991.84;4972200;28;20106;-81
2022/01/15 00:51:00;;;;;;;8.52;3.58;;;;;;;19.86;22.65;98994.22;4969030;28;20047;-81
2022/01/15 00:53:26;;;;;;;7.35;3.72;;;;;;;19.90;22.25;98993.06;4966779;28;20549;-81
2022/01/15 00:55:53;;;;;;;14.02;4.60;;;;;;;19.08;23.48;98998.06;4972221;28;20035;-81
2022/01/15 00:58:19;;;;;;;10.10;4.10;;;;;;;19.32;23.39;99000.34;4972167;28;20121;-80
2022/01/15 01:00:45;;;;;;;13.68;4.97;;;;;;;19.76;22.83;98997.69;4969127;28;20030;-81
2022/01/15 01:03:11;;;;;;;13.38;4.85;;;;;;;20.06;22.30;99000.34;4971317;28;20495;-82
2022/01/15 01:05:37;;;;;;;9.27;3.88;;;;;;;19.61;22.82;99005.09;4968445;28;20070;-82
2022/01/15 01:08:04;;;;;;;8.60;3.95;;;;;;;19.29;23.16;99001.09;4968958;28;20035;-81
2022/01/15 01:10:52;;;;;;;11.63;5.35;;;;;;;19.22;23.31;98999.03;4971801;28;20050;-81
2022/01/15 01:13:42;;;;;;;12.45;5.18;;;;;;;19.09;23.54;99011.59;4973523;28;20406;-81
2022/01/15 01:22:42;;;;;;;21.10;7.28;;;;;;;18.12;24.62;99015.28;4966578;28;20459;-81
2022/01/15 01:24:41;;;;;;;16.17;5.78;;;;;;;18.11;25.03;99015.66;4975831;28;20085;-81
2022/01/15 01:27:15;;;;;;;13.30;6.00;;;;;;;18.27;24.75;99014.34;4980960;28;20453;-81
2022/01/15 01:34:53;;;;;;;13.80;5.65;;;;;;;17.33;25.78;99010.59;4979105;28;20513;-81
2022/01/15 01:37:30;;;;;;;13.27;5.50;;;;;;;18.63;24.11;99015.72;4976001;28;20039;-81
2022/01/15 01:40:14;;;;;;;19.85;6.50;;;;;;;19.39;23.12;99013.59;4971279;28;20048;-81
2022/01/15 01:42:44;;;;;;;18.65;7.07;;;;;;;17.91;24.81;99012.13;4967230;28;20119;-81
2022/01/15 01:45:14;;;;;;;13.20;5.23;;;;;;;18.69;24.01;99008.66;4976973;28;20038;-81
2022/01/15 01:47:42;;;;;;;19.83;5.95;;;;;;;18.13;24.81;99000.22;4975263;28;20282;-81
2022/01/15 01:50:16;;;;;;;12.02;5.47;;;;;;;17.54;25.52;99013.81;4976385;28;20031;-81
2022/01/15 01:52:45;;;;;;;16.38;6.00;;;;;;;17.43;25.83;99016.38;4975687;28;20030;-81
2022/01/15 01:55:12;;;;;;;15.05;5.85;;;;;;;17.08;26.48;99018.41;4975690;28;20486;-81
2022/01/15 01:57:40;;;;;;;12.77;5.10;;;;;;;17.23;26.34;99023.88;4978512;28;20037;-81
2022/01/15 02:00:09;;;;;;;20.70;6.07;;;;;;;16.78;26.73;99023.69;4968811;28;20098;-81
2022/01/15 02:02:35;;;;;;;15.35;5.47;;;;;;;17.28;26.21;99020.81;4973217;28;20094;-81
2022/01/15 02:05:02;;;;;;;21.15;6.75;;;;;;;16.99;26.31;99021.38;4974491;28;20035;-81
2022/01/15 02:07:29;;;;;;;12.48;5.03;;;;;;;17.94;25.34;99028.06;4968975;28;20035;-81
2022/01/15 02:09:57;;;;;;;13.88;4.72;;;;;;;18.61;24.49;99027.22;4975599;28;20095;-81
2022/01/15 02:12:23;;;;;;;13.70;5.65;;;;;;;17.58;25.27;99018.25;4976061;28;20082;-81
2022/01/15 02:14:49;;;;;;;17.15;6.00;;;;;;;17.06;26.41;99024.31;4975445;28;20034;-81
2022/01/15 02:17:19;;;;;;;11.07;4.85;;;;;;;15.79;28.06;99028.75;4973690;28;20034;-81
2022/01/15 02:20:08;;;;;;;16.20;5.22;;;;;;;17.31;26.12;99033.16;4975163;28;20027;-81
2022/01/15 02:25:17;;;;;;;13.13;5.32;;;;;;;17.28;25.99;99026.38;4971264;28;20461;-81
2022/01/15 02:27:43;;;;;;;15.73;4.88;;;;;;;17.16;26.05;99020.97;4975787;28;20039;-81
2022/01/15 02:30:10;;;;;;;12.85;5.07;;;;;;;17.98;24.85;99019.78;4970722;28;20038;-81
2022/01/15 02:32:36;;;;;;;13.98;5.30;;;;;;;17.98;24.52;99028.91;4975375;28;20043;-81
2022/01/15 02:35:04;;;;;;;11.43;4.45;;;;;;;17.93;24.80;99032.00;4978009;28;20034;-81
2022/01/15 02:37:30;;;;;;;18.30;6.03;;;;;;;16.63;26.32;99021.78;4976134;28;20061;-80
2022/01/15 02:39:57;;;;;;;13.02;4.85;;;;;;;16.30;26.15;99021.34;4975414;28;20081;-81
2022/01/15 02:42:27;;;;;;;16.35;5.90;;;;;;;15.74;27.52;99027.06;4975739;28;20093;-81
2022/01/15 02:44:59;;;;;;;18.90;4.68;;;;;;;16.17;27.08;99026.19;4968764;28;20066;-81
2022/01/15 02:50:10;;;;;;;13.65;5.13;;;;;;;16.30;26.85;99037.97;4979966;28;20516;-81
2022/01/15 02:52:37;;;;;;;17.67;5.78;;;;;;;16.80;26.19;99032.47;4972114;28;20114;-81
2022/01/15 02:55:03;;;;;;;13.20;4.70;;;;;;;16.25;26.33;99027.16;4974253;28;20109;-81
2022/01/15 02:57:29;;;;;;;18.65;5.35;;;;;;;15.83;26.94;99027.69;4973540;28;20023;-81
2022/01/15 02:59:55;;;;;;;14.75;5.15;;;;;;;16.23;26.51;99038.59;4973856;28;20093;-81
2022/01/15 03:02:23;;;;;;;17.90;6.07;;;;;;;17.32;25.20;99031.22;4969797;28;20043;-81
2022/01/15 03:04:49;;;;;;;14.60;5.90;;;;;;;17.46;25.10;99042.56;4971248;28;20039;-80
2022/01/15 03:07:15;;;;;;;19.08;5.20;;;;;;;17.01;25.19;99041.25;4970770;28;20030;-81
2022/01/15 03:09:41;;;;;;;14.43;4.60;;;;;;;17.00;25.07;99047.16;4974221;28;20497;-80
2022/01/15 03:12:08;;;;;;;11.75;5.07;;;;;;;18.39;23.45;99035.59;4971211;28;20045;-81
2022/01/15 03:14:34;;;;;;;14.63;5.22;;;;;;;17.44;24.26;99040.16;4971115;28;20411;-81
2022/01/15 03:17:00;;;;;;;9.50;4.00;;;;;;;17.13;24.77;99043.88;4972496;28;20019;-83
2022/01/15 03:19:26;;;;;;;15.95;4.93;;;;;;;17.40;24.60;99044.03;4972119;28;20042;-81
2022/01/15 03:21:52;;;;;;;15.60;5.25;;;;;;;17.11;24.82;99032.34;4971028;28;20055;-83
2022/01/15 03:24:18;;;;;;;16.02;4.95;;;;;;;16.59;25.59;99043.09;4971437;28;20102;-81
2022/01/15 03:26:44;;;;;;;16.90;5.80;;;;;;;16.81;25.21;99025.75;4971108;28;20035;-81
2022/01/15 03:29:10;;;;;;;19.45;5.80;;;;;;;16.96;25.15;99029.66;4987031;28;20046;-81
2022/01/15 03:31:36;;;;;;;10.20;4.57;;;;;;;17.51;24.16;99028.38;4970110;28;20125;-80
2022/01/15 03:34:02;;;;;;;19.48;5.72;;;;;;;17.30;24.71;99037.09;4974005;28;20073;-82
2022/01/15 03:36:28;;;;;;;14.25;4.63;;;;;;;18.86;22.88;99037.91;4969596;28;20030;-79
2022/01/15 03:38:54;;;;;;;20.80;5.43;;;;;;;18.59;22.81;99034.34;4972129;28;20518;-80
2022/01/15 03:41:21;;;;;;;10.80;4.22;;;;;;;17.68;24.02;99047.41;4975064;28;20030;-80
2022/01/15 03:43:47;;;;;;;10.65;4.30;;;;;;;17.50;24.21;99047.06;4974775;28;20402;-80
2022/01/15 03:46:13;;;;;;;17.23;5.35;;;;;;;17.26;24.51;99053.69;4978696;28;20062;-80
2022/01/15 03:48:39;;;;;;;12.63;4.93;;;;;;;17.42;24.78;99055.59;4975090;28;20027;-80
2022/01/15 03:51:05;;;;;;;15.20;4.82;;;;;;;17.62;24.19;99058.00;4994308;28;20141;-80
2022/01/15 03:53:31;;;;;;;13.05;4.15;;;;;;;17.89;23.92;99050.59;4983705;28;20039;-80
2022/01/15 03:55:57;;;;;;;14.15;4.28;;;;;;;17.54;24.18;99052.69;4975421;28;20037;-81
2022/01/15 03:58:23;;;;;;;16.38;5.00;;;;;;;18.09;23.65;99056.88;4975666;28;20039;-80
2022/01/15 04:00:49;;;;;;;12.43;4.40;;;;;;;17.67;24.02;99063.25;4975143;28;20042;-80
2022/01/15 04:03:16;;;;;;;13.05;4.47;;;;;;;16.59;25.71;99059.72;4975123;28;20126;-80
2022/01/15 04:05:42;;;;;;;18.48;6.20;;;;;;;16.57;25.65;99048.16;4974781;28;20031;-80
2022/01/15 04:08:08;;;;;;;15.60;5.55;;;;;;;15.96;26.16;99047.81;4975240;28;20042;-80
2022/01/15 04:10:34;;;;;;;21.15;5.95;;;;;;;16.78;25.37;99054.19;4975085;28;20031;-80
2022/01/15 04:13:00;;;;;;;17.15;5.05;;;;;;;16.04;26.18;99049.59;4976112;28;20375;-80
2022/01/15 04:15:27;;;;;;;22.25;8.27;;;;;;;16.53;25.48;99061.13;4994348;28;20042;-80
2022/01/15 04:17:53;;;;;;;8.90;4.22;;;;;;;17.00;25.34;99056.28;4982868;28;20035;-80
2022/01/15 04:20:22;;;;;;;15.05;5.47;;;;;;;16.90;25.16;99061.59;4974811;28;20038;-80
2022/01/15 04:22:50;;;;;;;18.05;6.28;;;;;;;16.96;24.83;99062.94;4975071;28;20101;-80
2022/01/15 04:25:17;;;;;;;21.73;5.93;;;;;;;17.87;23.96;99064.06;4975126;28;20450;-80
2022/01/15 04:27:44;;;;;;;20.77;7.20;;;;;;;17.28;24.50;99051.34;4975155;28;20353;-80
2022/01/15 04:30:12;;;;;;;19.95;6.55;;;;;;;16.54;25.61;99057.22;4974727;28;20041;-80
2022/01/15 04:32:39;;;;;;;20.00;7.18;;;;;;;15.95;26.10;99048.97;4974696;28;20034;-80
2022/01/15 04:35:06;;;;;;;18.30;7.78;;;;;;;16.21;26.08;99065.88;4974788;28;20062;-80
2022/01/15 04:37:37;;;;;;;15.02;7.32;;;;;;;16.51;25.40;99063.47;4974345;28;20050;-79
2022/01/15 04:40:05;;;;;;;20.38;7.57;;;;;;;17.51;24.06;99067.25;4990555;28;20490;-80
2022/01/15 04:42:32;;;;;;;18.48;7.93;;;;;;;17.78;23.69;99064.25;4980056;28;20058;-80
2022/01/15 04:44:58;;;;;;;11.52;5.90;;;;;;;16.80;25.00;99071.31;4974895;28;20065;-80
2022/01/15 04:47:25;;;;;;;18.23;8.57;;;;;;;16.68;25.43;99070.59;4974482;28;20023;-80
2022/01/15 04:49:54;;;;;;;23.40;7.45;;;;;;;17.14;24.46;99070.47;4974577;28;20386;-80
2022/01/15 04:52:21;;;;;;;28.48;8.48;;;;;;;16.66;25.08;99070.16;4974756;28;20039;-80
2022/01/15 04:54:47;;;;;;;17.38;7.35;;;;;;;16.48;25.38;99069.69;4974070;28;20038;-80
2022/01/15 04:57:13;;;;;;;14.98;7.07;;;;;;;17.42;24.41;99075.00;4976544;28;20035;-80
2022/01/15 04:59:39;;;;;;;20.42;7.30;;;;;;;16.58;25.39;99074.72;4980798;28;20108;-80
2022/01/15 05:02:05;;;;;;;21.42;8.43;;;;;;;16.95;24.76;99076.00;4981141;28;20070;-80
2022/01/15 05:04:31;;;;;;;22.30;7.47;;;;;;;16.05;25.91;99078.09;4980768;28;20035;-80
2022/01/15 05:06:57;;;;;;;18.35;6.85;;;;;;;16.90;24.96;99078.22;4981146;28;20030;-80
2022/01/15 05:09:23;;;;;;;16.17;7.13;;;;;;;17.13;24.44;99076.38;4980868;28;20112;-80
2022/01/15 05:12:00;;;;;;;24.98;9.20;;;;;;;16.55;24.85;99089.28;4980297;28;20030;-80
2022/01/15 05:14:26;;;;;;;17.15;7.25;;;;;;;16.56;25.23;99094.50;4980947;28;20042;-80
2022/01/15 05:16:52;;;;;;;17.48;8.50;;;;;;;17.77;23.71;99095.19;4980902;28;20038;-80
2022/01/15 05:19:18;;;;;;;18.52;9.02;;;;;;;17.50;23.75;99094.25;4980607;28;20057;-80
2022/01/15 05:21:45;;;;;;;19.83;9.63;;;;;;;15.63;26.04;99095.19;4980812;28;20035;-80
2022/01/15 05:24:11;;;;;;;21.77;8.15;;;;;;;17.17;24.43;99103.06;4980816;28;20118;-80
2022/01/15 05:26:38;;;;;;;17.55;8.38;;;;;;;18.50;22.74;99093.00;4980926;28;20061;-80
2022/01/15 05:29:04;;;;;;;27.15;10.13;;;;;;;17.25;24.10;99095.66;4980900;28;20035;-80
2022/01/15 05:31:30;;;;;;;21.35;9.63;;;;;;;17.13;24.23;99095.78;4980401;28;20035;-80
2022/01/15 05:33:56;;;;;;;22.75;10.27;;;;;;;17.73;23.63;99097.09;4983151;28;20052;-80
2022/01/15 05:36:22;;;;;;;27.15;12.32;;;;;;;16.83;24.66;99091.94;4980776;28;20033;-80
2022/01/15 05:38:48;;;;;;;21.35;10.02;;;;;;;17.11;24.03;99090.63;4980591;28;20102;-80
2022/01/15 05:41:14;;;;;;;19.58;9.75;;;;;;;17.45;23.76;99091.75;4980582;28;20114;-80
2022/01/15 05:43:41;;;;;;;28.33;10.93;;;;;;;16.97;23.97;99090.31;4980357;28;20038;-80
2022/01/15 05:46:07;;;;;;;25.65;10.38;;;;;;;16.45;24.88;99095.38;4980508;28;20041;-80
2022/01/15 05:48:33;;;;;;;17.40;9.73;;;;;;;16.63;24.77;99107.72;4980148;28;20023;-80
2022/01/15 05:50:59;;;;;;;25.75;11.40;;;;;;;17.49;23.35;99103.72;4980335;28;20382;-80
2022/01/15 05:53:25;;;;;;;24.23;10.43;;;;;;;17.67;23.11;99098.56;4980354;28;20034;-80
2022/01/15 05:55:51;;;;;;;25.48;9.77;;;;;;;17.97;22.66;99110.66;4980386;28;20035;-80
2022/01/15 05:58:17;;;;;;;24.23;10.00;;;;;;;17.13;23.28;99104.94;4980525;28;20034;-80
2022/01/15 06:00:43;;;;;;;24.88;10.70;;;;;;;16.71;24.19;99103.94;4980268;28;20043;-80
2022/01/15 06:03:09;;;;;;;21.42;9.95;;;;;;;18.25;22.34;99113.97;4980008;28;20035;-80
2022/01/15 06:05:35;;;;;;;21.50;9.10;;;;;;;18.02;22.38;99112.34;4979959;28;20035;-80
2022/01/15 06:08:01;;;;;;;22.65;8.77;;;;;;;17.72;22.64;99112.16;4979734;28;20033;-80
2022/01/15 06:10:27;;;;;;;24.50;10.18;;;;;;;17.88;22.43;99105.34;4976575;28;20035;-79
2022/01/15 06:12:54;;;;;;;21.58;8.30;;;;;;;17.40;23.07;99103.16;4977160;28;20054;-80
2022/01/15 06:15:20;;;;;;;19.35;8.23;;;;;;;17.42;23.18;99106.34;4977412;28;20045;-80
2022/01/15 06:17:46;;;;;;;20.65;7.90;;;;;;;17.49;23.10;99097.38;4977020;28;20127;-80
2022/01/15 06:20:13;;;;;;;16.83;7.88;;;;;;;17.03;23.53;99097.19;4976843;28;20058;-80
2022/01/15 06:22:40;;;;;;;15.10;6.28;;;;;;;17.10;23.67;99110.41;4977345;28;20402;-80
2022/01/15 06:25:06;;;;;;;13.52;6.75;;;;;;;17.01;23.73;99105.03;4976960;28;20038;-80
2022/01/15 06:27:33;;;;;;;19.63;6.43;;;;;;;17.06;23.66;99104.00;4979800;28;20115;-81
2022/01/15 06:30:00;;;;;;;19.00;7.50;;;;;;;17.28;23.28;99103.28;4976968;28;20048;-80
2022/01/15 06:32:27;;;;;;;15.65;7.20;;;;;;;17.41;23.08;99112.28;4976867;28;20039;-80
2022/01/15 06:34:53;;;;;;;15.77;6.43;;;;;;;18.22;22.40;99106.38;4976949;28;20081;-80
2022/01/15 06:37:20;;;;;;;20.42;6.70;;;;;;;17.88;22.67;99112.88;4976573;28;20022;-81
2022/01/15 06:39:47;;;;;;;15.02;6.15;;;;;;;18.71;21.50;99114.00;4980931;28;20035;-80
2022/01/15 06:42:14;;;;;;;15.82;7.10;;;;;;;17.73;22.67;99113.78;4976603;28;20081;-81
2022/01/15 06:44:40;;;;;;;13.15;5.75;;;;;;;18.44;22.11;99125.03;4976689;28;20062;-81
2022/01/15 06:47:06;;;;;;;17.30;7.47;;;;;;;17.57;23.18;99127.75;4976846;28;20035;-81
2022/01/15 06:49:32;;;;;;;18.67;6.07;;;;;;;18.11;22.44;99130.38;4976619;28;20467;-81
2022/01/15 06:51:58;;;;;;;14.60;6.25;;;;;;;18.35;22.08;99132.00;4976545;28;20077;-81
2022/01/15 06:54:24;;;;;;;16.40;7.55;;;;;;;19.03;21.40;99123.63;4976892;28;20461;-80
2022/01/15 06:56:50;;;;;;;18.75;7.00;;;;;;;17.61;23.11;99130.56;4976127;28;20035;-81
2022/01/15 06:59:16;;;;;;;16.55;7.13;;;;;;;17.93;22.85;99130.06;4976739;28;20058;-81
2022/01/15 07:01:42;;;;;;;15.75;6.00;;;;;;;18.24;22.30;99129.06;4975477;28;20479;-81
2022/01/15 07:04:08;;;;;;;16.05;6.50;;;;;;;18.84;21.73;99130.09;4995809;28;20035;-81
2022/01/15 07:06:34;;;;;;;16.23;5.55;;;;;;;18.51;22.27;99132.72;4980425;28;20042;-81
2022/01/15 07:09:00;;;;;;;19.35;6.57;;;;;;;18.88;21.89;99133.72;4976361;28;20034;-81
2022/01/15 07:11:26;;;;;;;19.70;7.07;;;;;;;18.55;22.34;99134.38;4975685;28;20038;-81
2022/01/15 07:13:53;;;;;;;22.08;7.20;;;;;;;17.75;22.83;99131.69;4976021;28;20038;-81
2022/01/15 07:16:19;;;;;;;20.75;5.95;;;;;;;17.09;24.00;99133.75;4995525;28;20062;-80
2022/01/15 07:18:45;;;;;;;18.73;5.22;;;;;;;17.78;23.29;99139.25;4995221;28;20509;-81
2022/01/15 07:21:12;;;;;;;19.95;6.38;;;;;;;18.10;23.00;99133.53;4985833;28;20086;-81
2022/01/15 07:23:38;;;;;;;22.75;6.80;;;;;;;17.86;23.48;99143.81;4976503;28;20030;-80
2022/01/15 07:26:04;;;;;;;15.77;6.78;;;;;;;17.62;23.57;99132.19;4975991;28;20483;-80
2022/01/15 07:28:31;;;;;;;24.33;7.35;;;;;;;17.44;24.10;99155.94;4975837;28;20081;-80
2022/01/15 07:30:58;;;;;;;15.18;6.30;;;;;;;18.09;23.10;99151.38;4975545;28;20039;-80
2022/01/15 07:33:24;;;;;;;12.20;5.07;;;;;;;19.01;22.08;99156.59;4975964;28;20035;-80
2022/01/15 07:35:51;;;;;;;16.92;6.22;;;;;;;18.55;22.46;99153.84;4975949;28;20038;-80
2022/01/15 07:38:19;;;;;;;17.80;6.05;;;;;;;18.06;22.84;99147.38;4975017;28;20042;-80
2022/01/15 07:40:47;;;;;;;18.05;5.82;;;;;;;18.07;23.35;99160.09;4975557;28;20482;-80
2022/01/15 07:43:13;;;;;;;16.70;6.35;;;;;;;19.04;22.19;99167.00;4976008;28;20235;-80
2022/01/15 07:45:39;;;;;;;14.95;5.60;;;;;;;18.79;22.17;99155.44;4975309;28;20058;-80
2022/01/15 07:48:05;;;;;;;17.38;6.30;;;;;;;18.29;22.88;99161.31;4975005;28;20038;-78
2022/01/15 07:50:31;;;;;;;15.45;6.45;;;;;;;18.58;22.57;99163.44;4975833;28;20525;-80
2022/01/15 07:52:58;;;;;;;19.58;8.20;;;;;;;17.52;23.75;99164.13;4975504;28;20035;-80
2022/01/15 07:55:26;;;;;;;31.08;9.38;;;;;;;18.29;23.10;99169.63;4975162;28;20114;-80
2022/01/15 07:57:52;;;;;;;18.58;8.52;;;;;;;18.59;22.59;99173.41;4975737;28;20505;-80
2022/01/15 08:00:19;;;;;;;19.95;7.22;;;;;;;18.47;22.83;99173.56;4975445;28;20395;-80
2022/01/15 08:02:45;;;;;;;21.75;8.75;;;;;;;16.73;24.70;99175.69;4975195;28;20034;-80
2022/01/15 08:05:13;;;;;;;20.88;8.13;;;;;;;17.92;23.33;99174.88;4974890;28;20033;-80
2022/01/15 08:07:43;;;;;;;19.27;7.57;;;;;;;17.74;23.64;99182.03;4975150;28;20062;-80
2022/01/15 08:10:09;;;;;;;20.08;8.77;;;;;;;17.14;24.46;99184.25;4980839;28;20031;-80
2022/01/15 08:12:47;;;;;;;21.05;7.68;;;;;;;18.04;23.44;99176.69;4994466;28;20553;-80
2022/01/15 08:15:14;;;;;;;22.05;9.23;;;;;;;17.14;24.36;99164.81;4985071;28;20038;-80
2022/01/15 08:17:40;;;;;;;24.58;8.60;;;;;;;17.51;23.73;99162.50;4974923;28;20407;-80
2022/01/15 08:20:07;;;;;;;19.48;8.45;;;;;;;18.21;23.07;99167.88;4975096;28;20034;-80
2022/01/15 08:22:33;;;;;;;27.75;10.13;;;;;;;17.87;23.49;99175.16;4974957;28;20043;-80
2022/01/15 08:24:59;;;;;;;20.77;9.15;;;;;;;19.16;22.06;99180.72;4974931;28;20027;-80
2022/01/15 08:27:25;;;;;;;20.48;7.50;;;;;;;19.95;21.13;99182.22;4975968;28;20043;-80
2022/01/15 08:29:51;;;;;;;19.02;9.35;;;;;;;19.89;21.13;99174.56;4974892;28;20048;-80
2022/01/15 08:32:17;;;;;;;21.15;8.35;;;;;;;18.82;22.31;99182.53;4973954;28;20042;-80
2022/01/15 08:34:44;;;;;;;18.45;8.27;;;;;;;18.82;22.42;99181.72;4974939;28;20084;-80
2022/01/15 08:37:10;;;;;;;41.25;18.65;;;;;;;19.85;21.31;99180.13;4974872;28;20134;-80
2022/01/15 08:39:38;;;;;;;21.60;10.45;;;;;;;19.15;22.06;99176.31;4974095;28;20030;-80
2022/01/15 08:42:07;;;;;;;21.67;10.15;;;;;;;18.19;23.30;99181.34;4974718;28;20035;-80
2022/01/15 08:44:34;;;;;;;22.58;10.30;;;;;;;17.93;23.41;99168.13;4989585;28;20521;-80
2022/01/15 08:47:04;;;;;;;30.02;10.85;;;;;;;17.31;24.33;99173.91;4974552;28;20035;-80
2022/01/15 08:49:30;;;;;;;18.77;8.95;;;;;;;17.67;23.94;99179.09;4966270;28;20467;-80
2022/01/15 08:51:56;;;;;;;23.45;11.05;;;;;;;16.83;24.61;99180.69;4974023;28;20089;-80
2022/01/15 08:54:22;;;;;;;22.77;10.55;;;;;;;16.44;25.31;99183.25;4974260;28;20030;-80
2022/01/15 08:56:48;;;;;;;34.38;17.27;;;;;;;17.12;24.58;99174.66;4974107;28;20031;-80
2022/01/15 08:59:14;;;;;;;21.58;10.15;;;;;;;17.50;24.32;99179.50;4974759;28;20042;-80
2022/01/15 09:01:40;;;;;;;26.67;10.63;;;;;;;17.65;23.69;99170.31;4974698;28;20101;-80
2022/01/15 09:04:06;;;;;;;30.20;11.75;;;;;;;17.17;24.55;99177.16;4974426;28;20086;-80
2022/01/15 09:06:32;;;;;;;27.58;10.43;;;;;;;18.37;23.15;99172.16;4974456;28;20126;-80
2022/01/15 09:08:59;;;;;;;21.70;10.30;;;;;;;17.81;23.80;99179.38;4972980;28;20023;-80
2022/01/15 09:11:25;;;;;;;20.75;9.02;;;;;;;18.04;23.35;99179.47;4974379;28;20050;-80
2022/01/15 09:13:51;;;;;;;21.58;9.25;;;;;;;18.67;22.61;99189.03;4973939;28;20483;-80
2022/01/15 09:16:17;;;;;;;22.02;8.80;;;;;;;18.95;22.64;99191.50;4974433;28;20035;-80
2022/01/15 09:18:43;;;;;;;27.40;9.88;;;;;;;17.52;24.02;99179.97;4974186;28;20047;-80
2022/01/15 09:21:09;;;;;;;24.88;9.98;;;;;;;16.62;25.19;99174.63;4974743;28;20034;-80
2022/01/15 09:23:35;;;;;;;21.90;8.95;;;;;;;15.59;26.93;99166.22;4974310;28;20483;-80
2022/01/15 09:26:01;;;;;;;21.38;9.27;;;;;;;16.29;25.88;99189.56;4973874;28;20611;-80
2022/01/15 09:31:12;;;;;;;23.88;10.13;;;;;;;17.30;24.16;99178.66;4968198;28;20466;-80
2022/01/15 09:33:38;;;;;;;26.25;9.68;;;;;;;17.87;23.61;99181.53;4974295;28;20031;-80
2022/01/15 09:36:05;;;;;;;26.20;9.95;;;;;;;17.20;23.85;99195.84;4974427;28;20043;-80
2022/01/15 09:38:32;;;;;;;20.67;8.80;;;;;;;16.85;24.38;99173.63;4974231;28;20111;-80
2022/01/15 09:40:58;;;;;;;25.52;9.25;;;;;;;16.06;25.82;99183.00;4974125;28;20027;-80
2022/01/15 09:43:24;;;;;;;25.13;10.10;;;;;;;16.45;24.74;99184.06;4974869;28;20039;-80
2022/01/15 09:45:52;;;;;;;25.30;8.73;;;;;;;17.16;23.95;99165.25;4977363;28;20035;-80
2022/01/15 09:48:19;;;;;;;17.05;7.55;;;;;;;17.68;23.50;99175.97;4977676;28;20131;-80
2022/01/15 09:50:46;;;;;;;18.48;8.10;;;;;;;17.53;23.25;99167.69;4977930;28;20066;-80
2022/01/15 09:53:19;;;;;;;24.75;9.40;;;;;;;17.48;23.23;99170.75;4977566;28;20035;-80
2022/01/15 09:55:46;;;;;;;20.33;7.97;;;;;;;16.61;24.49;99171.06;4976808;28;20046;-80
2022/01/15 09:58:12;;;;;;;20.23;8.05;;;;;;;16.99;23.74;99173.97;4961903;28;20051;-80
2022/01/15 10:00:39;;;;;;;23.40;8.32;;;;;;;17.23;23.11;99170.16;4965268;28;20050;-80
2022/01/15 10:03:05;;;;;;;23.63;8.80;;;;;;;17.14;23.56;99170.38;4976453;28;20035;-80
2022/01/15 10:05:31;;;;;;;21.30;8.77;;;;;;;16.01;24.78;99172.16;4977558;28;20097;-80
2022/01/15 10:07:59;;;;;;;17.48;7.53;;;;;;;17.69;23.07;99160.13;4977025;28;20031;-80
2022/01/15 10:10:28;;;;;;;24.08;8.07;;;;;;;19.37;20.56;99155.97;4977165;28;20483;-80
2022/01/15 10:12:54;;;;;;;20.55;7.40;;;;;;;18.56;21.31;99174.94;4977367;28;20129;-80
2022/01/15 10:15:22;;;;;;;19.48;8.00;;;;;;;18.09;21.86;99166.06;4977203;28;20037;-80
2022/01/15 10:17:48;;;;;;;21.00;6.65;;;;;;;17.95;22.07;99169.38;4976550;28;20078;-80
2022/01/15 10:20:21;;;;;;;23.17;8.55;;;;;;;17.62;22.54;99176.63;4977004;28;20053;-80
2022/01/15 10:22:50;;;;;;;17.83;6.68;;;;;;;18.24;22.15;99170.75;4977183;28;20159;-80
2022/01/15 10:25:21;;;;;;;19.42;8.02;;;;;;;18.08;22.17;99170.03;4996435;28;20038;-80
2022/01/15 10:27:51;;;;;;;18.20;7.82;;;;;;;18.62;21.57;99169.88;4996607;28;20026;-80
2022/01/15 10:30:23;;;;;;;17.45;7.15;;;;;;;19.77;20.49;99175.63;4982119;28;20046;-80
2022/01/15 10:32:58;;;;;;;23.55;9.32;;;;;;;18.55;21.28;99172.53;4977228;28;20398;-80
2022/01/15 10:35:29;;;;;;;18.85;7.40;;;;;;;19.12;21.09;99174.25;4976831;28;20031;-80
2022/01/15 10:38:06;;;;;;;20.38;8.77;;;;;;;19.57;20.72;99174.16;4976693;28;20121;-81
2022/01/15 10:40:51;;;;;;;17.25;7.38;;;;;;;19.41;21.09;99178.31;4977020;28;20077;-80
2022/01/15 10:43:19;;;;;;;18.67;7.50;;;;;;;18.80;21.47;99186.88;4976613;28;20039;-80
2022/01/15 10:45:52;;;;;;;26.83;8.85;;;;;;;19.48;20.95;99179.22;4976762;28;20048;-80
2022/01/15 10:48:25;;;;;;;20.45;7.93;;;;;;;17.86;22.35;99190.22;4977216;28;20049;-80
2022/01/15 10:50:59;;;;;;;22.40;8.05;;;;;;;17.04;23.42;99183.97;4976402;28;20034;-79
2022/01/15 10:53:36;;;;;;;19.40;7.07;;;;;;;16.90;23.22;99187.22;4977187;28;20487;-80
2022/01/15 10:56:03;;;;;;;16.27;7.03;;;;;;;16.37;24.44;99191.38;4975358;28;20372;-80
2022/01/15 10:58:29;;;;;;;21.98;7.35;;;;;;;16.96;23.39;99185.78;4990712;28;20091;-80
2022/01/15 11:00:55;;;;;;;17.77;6.72;;;;;;;16.81;23.34;99180.25;4976329;28;20534;-80
2022/01/15 11:03:23;;;;;;;22.70;7.07;;;;;;;16.06;23.91;99177.47;4976741;28;20034;-80
2022/01/15 11:05:52;;;;;;;22.20;7.63;;;;;;;15.18;24.87;99175.63;4976329;28;20035;-80
2022/01/15 11:08:26;;;;;;;17.23;7.15;;;;;;;16.03;24.46;99183.72;4980493;28;20038;-80
2022/01/15 11:11:02;;;;;;;23.00;7.47;;;;;;;16.79;23.56;99188.94;4976449;28;20058;-80
2022/01/15 11:13:34;;;;;;;16.17;6.03;;;;;;;16.86;23.90;99182.75;4976414;28;20042;-80
2022/01/15 11:16:08;;;;;;;21.15;6.68;;;;;;;17.97;22.58;99173.78;4976223;28;20035;-80
2022/01/15 11:18:37;;;;;;;18.77;6.47;;;;;;;17.48;23.05;99184.63;4975922;28;20043;-80
2022/01/15 11:21:08;;;;;;;19.15;7.32;;;;;;;18.10;21.85;99183.56;4975957;28;20077;-80
2022/01/15 11:23:37;;;;;;;19.85;7.32;;;;;;;17.12;22.67;99180.22;4976209;28;20031;-80
2022/01/15 11:26:08;;;;;;;19.92;6.72;;;;;;;16.75;23.62;99173.38;4975436;28;20064;-80
2022/01/15 11:28:34;;;;;;;19.20;8.23;;;;;;;17.96;22.20;99164.63;4975674;28;20125;-80
2022/01/15 11:31:04;;;;;;;14.05;5.72;;;;;;;19.31;20.64;99149.09;4975816;28;20039;-80
2022/01/15 11:33:33;;;;;;;16.98;6.95;;;;;;;19.00;20.86;99166.94;4974728;28;20065;-80
2022/01/15 11:35:59;;;;;;;20.20;7.60;;;;;;;18.41;21.45;99166.69;4975859;28;20027;-80
2022/01/15 11:38:43;;;;;;;14.18;6.80;;;;;;;18.67;20.78;99168.75;4975837;28;20073;-80
2022/01/15 11:41:32;;;;;;;18.70;7.68;;;;;;;17.77;22.33;99170.19;4975589;28;20034;-80
2022/01/15 11:44:02;;;;;;;17.33;6.75;;;;;;;18.48;21.69;99170.41;4975322;28;20427;-80
2022/01/15 11:46:49;;;;;;;25.35;8.25;;;;;;;18.66;21.03;99167.16;4975515;28;20571;-80